Weather History for Batesville, AR

Change the Weather History Date:

Wednesday, July 10, 2013

  Actual Average Record
Temperature  
Mean Temperature 89 °F -  
Max Temperature 100 °F 95 °F 105 °F (1966)
Min Temperature 78 °F 70 °F 50 °F (1963)
Cooling Degree Days 24    
Growing Degree Days 39 (Base 50)    
Moisture  
Dew Point 70 °F    
Average Humidity 58    
Maximum Humidity 70    
Minimum Humidity 39    
Precipitation  
Precipitation 0.00 in - - ()
Sea Level Pressure  
Sea Level Pressure 29.98 in    
Wind  
Wind Speed 5 mph (SW)    
Max Wind Speed 14 mph    
Max Gust Speed -    
Visibility 10 miles    
Events      
Averages and records for this station are not official NWS values.
T = Trace of Precipitation, MM = Missing Value Source: NWS Daily Summary

Daily Weather History Graph

Daily Weather History Graph

Search for Another Location

Airport:

Trip Planner

Search our weather history database for the weather conditions in past years. The results will help you decide how hot, cold, wet, or windy it might be!

Date:

Astronomy

Jul. 10, 2013 Rise Set
Actual Time 5:59 AM CDT 8:24 PM CDT
Civil Twilight 5:29 AM CDT 8:54 PM CDT
Nautical Twilight 4:53 AM CDT 9:30 PM CDT
Astronomical Twilight 4:12 AM CDT 10:10 PM CDT
Moon 8:14 AM CDT (7/10) 9:41 PM CDT (7/10)
Length of Visible Light 15h 24m
Length of Day
14h 25m
Waxing Crescent, 5% of the Moon is Illuminated
Jul 10
Waxing Crescent
Jul 15
First Quarter
Jul 22
Full
Jul 29
Last Quarter
Aug 6
New

Hourly Weather History & Observations

Time (CDT) Temp. Heat Index Dew Point Humidity Pressure Visibility Wind Dir Wind Speed Gust Speed Precip Events Conditions
12:55 AM 82.4 °F 87.2 °F 71.6 °F 70% 30.02 in 10.0 mi South 4.6 mph - N/A   Clear
1:15 AM 82.4 °F 87.2 °F 71.6 °F 70% 30.02 in 10.0 mi SSW 4.6 mph - N/A   Clear
1:35 AM 82.4 °F 87.2 °F 71.6 °F 70% 30.02 in 10.0 mi SSW 4.6 mph - N/A   Clear
2:15 AM 80.6 °F 83.9 °F 69.8 °F 70% 30.01 in 10.0 mi Calm Calm - N/A   Clear
2:35 AM 80.6 °F 83.9 °F 69.8 °F 70% 30.01 in 10.0 mi WSW 5.8 mph - N/A   Clear
2:55 AM 82.4 °F 86.3 °F 69.8 °F 66% 30.01 in 10.0 mi WSW 6.9 mph - N/A   Clear
3:15 AM 82.4 °F 86.3 °F 69.8 °F 66% 30.00 in 10.0 mi WSW 6.9 mph - N/A   Clear
3:35 AM 82.4 °F 86.3 °F 69.8 °F 66% 30.00 in 10.0 mi SW 5.8 mph - N/A   Clear
3:55 AM 82.4 °F 85.4 °F 68.0 °F 62% 30.01 in 10.0 mi SW 8.1 mph - N/A   Clear
4:15 AM 82.4 °F 86.3 °F 69.8 °F 66% 30.00 in 10.0 mi SW 6.9 mph - N/A   Clear
4:36 AM 80.6 °F 83.2 °F 68.0 °F 65% 30.00 in 10.0 mi WSW 4.6 mph - N/A   Clear
4:55 AM 80.6 °F 83.2 °F 68.0 °F 65% 30.00 in 10.0 mi WSW 4.6 mph - N/A   Clear
5:35 AM 78.8 °F - 68.0 °F 69% 30.00 in 10.0 mi SW 3.5 mph - N/A   Clear
6:15 AM 80.6 °F 83.9 °F 69.8 °F 70% 30.01 in 10.0 mi SW 5.8 mph - N/A   Clear
6:55 AM 80.6 °F 83.9 °F 69.8 °F 70% 30.02 in 10.0 mi SW 3.5 mph - N/A   Clear
7:55 AM 82.4 °F 86.3 °F 69.8 °F 66% 30.03 in 10.0 mi Calm Calm - N/A   Mostly Cloudy
8:15 AM 84.2 °F 88.4 °F 69.8 °F 62% 30.04 in 10.0 mi WSW 8.1 mph - N/A   Overcast
8:35 AM 84.2 °F 88.4 °F 69.8 °F 62% 30.04 in 10.0 mi WSW 8.1 mph - N/A   Scattered Clouds
8:55 AM 84.2 °F 88.4 °F 69.8 °F 62% 30.04 in 10.0 mi South 5.8 mph - N/A   Mostly Cloudy
9:15 AM 87.8 °F 93.8 °F 71.6 °F 58% 30.04 in 10.0 mi WSW 5.8 mph - N/A   Scattered Clouds
9:55 AM 87.8 °F 93.8 °F 71.6 °F 58% 30.03 in 10.0 mi WNW 4.6 mph - N/A   Scattered Clouds
10:35 AM 87.8 °F 93.8 °F 71.6 °F 58% 30.03 in 10.0 mi West 6.9 mph - N/A   Clear
10:55 AM 87.8 °F 93.8 °F 71.6 °F 58% 30.03 in 10.0 mi WSW 5.8 mph - N/A   Mostly Cloudy
11:15 AM 89.6 °F 94.7 °F 69.8 °F 52% 30.03 in 10.0 mi WSW 4.6 mph - N/A   Overcast
11:35 AM 89.6 °F 94.7 °F 69.8 °F 52% 30.04 in 10.0 mi South 3.5 mph - N/A   Scattered Clouds
11:55 AM 91.4 °F 96.8 °F 69.8 °F 49% 30.04 in 10.0 mi Calm Calm - N/A   Partly Cloudy
12:15 PM 93.2 °F 100.5 °F 71.6 °F 49% 30.03 in 10.0 mi SE 3.5 mph - N/A   Clear
12:55 PM 93.2 °F 98.8 °F 69.8 °F 46% 30.01 in 10.0 mi SE 4.6 mph - N/A   Clear
1:15 PM 96.8 °F 103.1 °F 69.8 °F 41% 30.01 in 10.0 mi Calm Calm - N/A   Partly Cloudy
1:36 PM 96.8 °F 103.1 °F 69.8 °F 41% 29.99 in 10.0 mi East 3.5 mph - N/A   Clear
1:55 PM 98.6 °F 107.7 °F 71.6 °F 42% 29.99 in 10.0 mi Calm Calm - N/A   Clear
2:15 PM 98.6 °F 107.7 °F 71.6 °F 42% 29.98 in 10.0 mi SE 3.5 mph - N/A   Clear
2:35 PM 98.6 °F 107.7 °F 71.6 °F 42% 29.98 in 10.0 mi SE 6.9 mph - N/A   Clear
2:55 PM 98.6 °F 107.7 °F 71.6 °F 42% 29.96 in 10.0 mi Calm Calm - N/A   Clear
3:35 PM 98.6 °F 105.5 °F 69.8 °F 39% 29.95 in 10.0 mi South 6.9 mph - N/A   Mostly Cloudy
3:55 PM 100.4 °F 109.3 °F 71.6 °F 39% 29.94 in 10.0 mi ENE 6.9 mph - N/A   Scattered Clouds
4:15 PM 96.8 °F 105.1 °F 71.6 °F 44% 29.92 in 10.0 mi NNE 3.5 mph - N/A   Mostly Cloudy
4:35 PM 98.6 °F 105.5 °F 69.8 °F 39% 29.92 in 10.0 mi Calm Calm - N/A   Overcast
4:55 PM 95.0 °F 101.3 °F 69.8 °F 44% 29.91 in 10.0 mi West 5.8 mph - N/A   Scattered Clouds
5:15 PM 93.2 °F 100.5 °F 71.6 °F 49% 29.90 in 10.0 mi NW 4.6 mph - N/A   Clear
5:35 PM 91.4 °F 98.4 °F 71.6 °F 52% 29.91 in 10.0 mi West 5.8 mph - N/A   Partly Cloudy
6:15 PM 89.6 °F 94.7 °F 69.8 °F 52% 29.91 in 10.0 mi West 10.4 mph - N/A   Clear
6:35 PM 87.8 °F 92.6 °F 69.8 °F 55% 29.91 in 10.0 mi Calm Calm - N/A   Clear
6:55 PM 87.8 °F 92.6 °F 69.8 °F 55% 29.93 in 10.0 mi SW 8.1 mph - N/A   Clear
7:15 PM 87.8 °F 90.4 °F 66.2 °F 49% 29.93 in 10.0 mi WSW 13.8 mph - N/A   Partly Cloudy
7:35 PM 84.2 °F 86.6 °F 66.2 °F 55% 29.94 in 10.0 mi WSW 9.2 mph - N/A   Clear
8:15 PM 82.4 °F 84.6 °F 66.2 °F 58% 29.93 in 10.0 mi West 8.1 mph - N/A   Clear
8:35 PM 82.4 °F 85.4 °F 68.0 °F 62% 29.93 in 10.0 mi West 3.5 mph - N/A   Clear
8:36 PM 82.4 °F 85.4 °F 68.0 °F 62% 29.93 in 10.0 mi West 4.6 mph - N/A   Clear
8:55 PM 82.4 °F 86.3 °F 69.8 °F 66% 29.94 in 10.0 mi SW 5.8 mph - N/A   Clear
9:15 PM 82.4 °F 85.4 °F 68.0 °F 62% 29.95 in 10.0 mi Calm Calm - N/A   Clear
9:35 PM 82.4 °F 86.3 °F 69.8 °F 66% 29.96 in 10.0 mi SW 4.6 mph - N/A   Clear
9:36 PM 82.4 °F 86.3 °F 69.8 °F 66% 29.96 in 10.0 mi SW 3.5 mph - N/A   Clear
9:55 PM 80.6 °F 83.9 °F 69.8 °F 70% 29.96 in 10.0 mi Calm Calm - N/A   Clear
10:35 PM 80.6 °F 83.2 °F 68.0 °F 65% 29.97 in 10.0 mi West 3.5 mph - N/A   Clear
10:55 PM 80.6 °F 83.2 °F 68.0 °F 65% 29.97 in 10.0 mi West 3.5 mph - N/A   Clear
11:36 PM 78.8 °F - 68.0 °F 69% 29.97 in 10.0 mi Calm Calm - N/A   Scattered Clouds
11:55 PM 78.8 °F - 68.0 °F 69% 29.97 in 10.0 mi Calm Calm - N/A   Clear